createdAt,value
2019-04-03T00:00:28.930Z,19.50
2019-04-03T00:01:28.967Z,18.70
2019-04-03T00:02:28.915Z,19.40
2019-04-03T00:03:28.941Z,18.90
2019-04-03T00:04:28.884Z,20.10
2019-04-03T00:05:28.873Z,20.30
2019-04-03T00:06:28.864Z,19.00
2019-04-03T00:07:28.854Z,19.10
2019-04-03T00:08:28.850Z,18.20
2019-04-03T00:09:28.829Z,19.60
2019-04-03T00:10:28.856Z,19.00
2019-04-03T00:11:28.827Z,20.00
2019-04-03T00:12:28.817Z,19.70
2019-04-03T00:13:28.800Z,19.70
2019-04-03T00:14:28.776Z,18.80
2019-04-03T00:15:28.765Z,19.30
2019-04-03T00:16:28.754Z,19.40
2019-04-03T00:17:28.745Z,19.90
2019-04-03T00:18:28.750Z,19.20
2019-04-03T00:19:28.755Z,19.40
2019-04-03T00:20:28.727Z,18.60
2019-04-03T00:21:28.781Z,19.20
2019-04-03T00:22:28.690Z,19.50
2019-04-03T00:23:28.702Z,18.50
2019-04-03T00:24:28.670Z,19.50
2019-04-03T00:25:28.666Z,18.50
2019-04-03T00:26:30.674Z,18.30
2019-04-03T00:27:28.650Z,18.30
2019-04-03T00:28:28.626Z,18.30
2019-04-03T00:29:28.629Z,17.90
2019-04-03T00:30:28.611Z,17.70
2019-04-03T00:31:28.592Z,17.90
2019-04-03T00:32:28.579Z,17.80
2019-04-03T00:33:28.589Z,19.10
2019-04-03T00:34:28.566Z,19.10
2019-04-03T00:35:28.547Z,18.30
2019-04-03T00:36:28.546Z,18.00
2019-04-03T00:37:28.537Z,18.40
2019-04-03T00:38:28.526Z,18.00
2019-04-03T00:39:28.511Z,18.70
2019-04-03T00:40:28.494Z,18.60
2019-04-03T00:41:28.692Z,18.70
2019-04-03T00:42:28.581Z,18.70
2019-04-03T00:43:28.459Z,18.00
2019-04-03T00:44:28.457Z,17.80
2019-04-03T00:45:28.442Z,19.30
2019-04-03T00:46:28.450Z,18.60
2019-04-03T00:47:28.415Z,19.50
2019-04-03T00:48:28.499Z,18.20
2019-04-03T00:49:28.438Z,18.20
2019-04-03T00:50:28.381Z,17.90
2019-04-03T00:51:28.414Z,17.60
2019-04-03T00:52:28.360Z,18.30
2019-04-03T00:53:28.378Z,18.40
2019-04-03T00:54:30.679Z,17.50
2019-04-03T00:55:28.330Z,17.80
2019-04-03T00:56:28.321Z,17.40
2019-04-03T00:57:28.305Z,17.80
2019-04-03T00:58:28.304Z,17.90
2019-04-03T00:59:28.290Z,17.20
2019-04-03T01:00:28.282Z,18.40
2019-04-03T01:01:28.269Z,18.80
2019-04-03T01:02:28.613Z,19.30
2019-04-03T01:03:28.715Z,18.60
2019-04-03T01:04:28.997Z,18.30
2019-04-03T01:05:28.951Z,17.90
2019-04-03T01:06:28.950Z,18.70
2019-04-03T01:07:29.251Z,17.80
2019-04-03T01:08:29.337Z,18.00
2019-04-03T01:09:29.773Z,18.00
2019-04-03T01:10:29.806Z,17.10
2019-04-03T01:11:28.872Z,18.80
2019-04-03T01:12:30.539Z,17.80
2019-04-03T01:13:28.133Z,17.70
2019-04-03T01:14:28.155Z,17.60
2019-04-03T01:15:28.211Z,17.40
2019-04-03T01:16:28.105Z,18.80
2019-04-03T01:17:28.092Z,19.90
2019-04-03T01:18:28.084Z,18.30
2019-04-03T01:19:28.095Z,19.50
2019-04-03T01:20:28.064Z,19.40
2019-04-03T01:21:28.052Z,18.90
2019-04-03T01:22:28.204Z,18.50
2019-04-03T01:23:28.021Z,19.10
2019-04-03T01:24:28.025Z,19.50
2019-04-03T01:25:28.008Z,19.70
2019-04-03T01:26:27.989Z,19.60
2019-04-03T01:27:27.981Z,19.60
2019-04-03T01:28:27.968Z,20.60
2019-04-03T01:29:27.964Z,19.00
2019-04-03T01:30:27.948Z,19.20
2019-04-03T01:31:27.937Z,19.20
2019-04-03T01:32:28.025Z,19.80
2019-04-03T01:33:27.911Z,18.40
2019-04-03T01:34:27.956Z,19.00
2019-04-03T01:35:27.897Z,19.70
2019-04-03T01:36:28.075Z,18.70
2019-04-03T01:37:27.874Z,18.90
2019-04-03T01:38:27.862Z,19.30
2019-04-03T01:39:27.931Z,18.80
2019-04-03T01:40:27.835Z,17.40
2019-04-03T01:41:28.062Z,19.20
2019-04-03T01:42:27.810Z,19.30
2019-04-03T01:43:27.801Z,18.90
2019-04-03T01:44:27.824Z,19.20
2019-04-03T01:45:27.778Z,18.40
2019-04-03T01:46:28.134Z,19.10
2019-04-03T01:47:28.183Z,18.90
2019-04-03T01:48:28.480Z,18.20
2019-04-03T01:49:28.390Z,19.40
2019-04-03T01:50:42.573Z,19.90
2019-04-03T01:51:29.731Z,19.20
2019-04-03T01:52:27.703Z,18.50
2019-04-03T01:53:27.702Z,19.00
2019-04-03T01:54:27.707Z,19.20
2019-04-03T01:55:27.669Z,18.90
2019-04-03T01:56:27.660Z,19.70
2019-04-03T01:57:27.650Z,19.30
2019-04-03T01:58:27.647Z,18.60
2019-04-03T01:59:27.639Z,19.30
2019-04-03T02:00:27.610Z,19.20
2019-04-03T02:01:27.606Z,19.10
2019-04-03T02:02:27.616Z,19.50
2019-04-03T02:03:27.578Z,19.50
2019-04-03T02:04:27.589Z,19.80
2019-04-03T02:05:27.562Z,19.20
2019-04-03T02:06:27.543Z,19.20
2019-04-03T02:07:27.573Z,19.40
2019-04-03T02:08:27.550Z,18.50
2019-04-03T02:09:27.573Z,19.20
2019-04-03T02:10:27.713Z,18.90
2019-04-03T02:11:27.532Z,19.00
2019-04-03T02:12:27.476Z,20.40
2019-04-03T02:13:27.474Z,19.10
2019-04-03T02:14:27.497Z,19.60
2019-04-03T02:15:27.445Z,19.40
2019-04-03T02:16:27.432Z,20.20
2019-04-03T02:17:27.420Z,20.40
2019-04-03T02:18:27.411Z,20.50
2019-04-03T02:19:27.404Z,19.40
2019-04-03T02:20:27.588Z,20.30
2019-04-03T02:21:28.307Z,20.30
2019-04-03T02:22:28.969Z,20.10
2019-04-03T02:23:27.370Z,20.20
2019-04-03T02:24:27.359Z,20.90
2019-04-03T02:25:27.398Z,20.20
2019-04-03T02:26:27.515Z,19.80
2019-04-03T02:27:27.310Z,20.40
2019-04-03T02:28:27.303Z,21.20
2019-04-03T02:29:27.295Z,20.20
2019-04-03T02:30:27.285Z,20.50
2019-04-03T02:31:27.364Z,20.40
2019-04-03T02:32:27.265Z,20.90
2019-04-03T02:33:28.940Z,20.40
2019-04-03T02:34:27.238Z,20.80
2019-04-03T02:35:27.232Z,20.10
2019-04-03T02:36:27.207Z,20.70
2019-04-03T02:37:27.509Z,20.10
2019-04-03T02:38:27.204Z,20.80
2019-04-03T02:39:27.731Z,20.10
2019-04-03T02:40:31.422Z,20.50
2019-04-03T02:41:28.161Z,19.40
2019-04-03T02:42:27.146Z,20.80
2019-04-03T02:43:27.143Z,20.10
2019-04-03T02:44:27.125Z,21.00
2019-04-03T02:45:27.130Z,21.20
2019-04-03T02:46:28.608Z,21.00
2019-04-03T02:47:27.334Z,21.20
2019-04-03T02:48:27.199Z,20.60
2019-04-03T02:49:27.068Z,20.60
2019-04-03T02:50:27.066Z,20.40
2019-04-03T02:51:27.049Z,20.70
2019-04-03T02:52:27.483Z,20.70
2019-04-03T02:53:27.510Z,21.10
2019-04-03T02:54:27.016Z,20.70
2019-04-03T02:55:27.012Z,20.40
2019-04-03T02:56:27.019Z,20.30
2019-04-03T02:57:26.977Z,21.30
2019-04-03T02:58:26.967Z,21.40
2019-04-03T02:59:27.010Z,20.60
2019-04-03T03:00:27.109Z,21.20
2019-04-03T03:01:26.930Z,21.60
2019-04-03T03:02:26.933Z,21.20
2019-04-03T03:03:26.930Z,21.60
2019-04-03T03:04:26.915Z,21.00
2019-04-03T03:05:28.422Z,21.40
2019-04-03T03:06:26.879Z,20.90
2019-04-03T03:07:26.864Z,20.10
2019-04-03T03:08:26.852Z,20.80
2019-04-03T03:09:26.865Z,20.80
2019-04-03T03:10:30.621Z,21.20
2019-04-03T03:11:26.845Z,20.80
2019-04-03T03:12:27.784Z,20.50
2019-04-03T03:13:26.926Z,20.60
2019-04-03T03:14:26.792Z,21.20
2019-04-03T03:15:26.781Z,21.20
2019-04-03T03:16:26.941Z,20.70
2019-04-03T03:17:26.822Z,20.70
2019-04-03T03:18:28.040Z,21.10
2019-04-03T03:19:26.736Z,20.70
2019-04-03T03:20:26.756Z,21.10
2019-04-03T03:21:26.740Z,19.50
2019-04-03T03:22:26.698Z,20.40
2019-04-03T03:23:26.940Z,20.30
2019-04-03T03:24:29.358Z,21.10
2019-04-03T03:25:26.701Z,20.10
2019-04-03T03:26:26.672Z,20.80
2019-04-03T03:27:26.715Z,20.60
2019-04-03T03:28:26.636Z,20.00
2019-04-03T03:29:27.524Z,21.30
2019-04-03T03:30:38.906Z,20.70
2019-04-03T03:31:57.420Z,21.20
2019-04-03T03:32:32.778Z,21.60
2019-04-03T03:33:35.676Z,20.50
2019-04-03T03:34:47.416Z,20.90
2019-04-03T03:35:31.420Z,21.20
2019-04-03T03:36:27.729Z,20.80
2019-04-03T03:37:26.668Z,21.40
2019-04-03T03:38:27.792Z,20.90
2019-04-03T03:39:26.514Z,20.90
2019-04-03T03:40:26.525Z,20.50
2019-04-03T03:41:26.507Z,20.30
2019-04-03T03:42:30.114Z,20.40
2019-04-03T03:43:26.683Z,20.40
2019-04-03T03:44:26.488Z,21.20
2019-04-03T03:45:26.447Z,20.60
2019-04-03T03:46:27.825Z,20.80
2019-04-03T03:47:26.429Z,20.80
2019-04-03T03:48:26.488Z,20.40
2019-04-03T03:49:26.785Z,21.00
2019-04-03T03:50:26.708Z,20.40
2019-04-03T03:51:30.166Z,20.40
2019-04-03T03:52:26.474Z,22.10
2019-04-03T03:53:26.605Z,21.80
2019-04-03T03:54:26.408Z,21.50
2019-04-03T03:55:26.404Z,21.60
2019-04-03T03:56:26.337Z,20.90
2019-04-03T03:57:26.595Z,20.40
2019-04-03T03:58:26.502Z,21.30
2019-04-03T03:59:26.339Z,21.50
2019-04-03T04:00:26.420Z,20.50
2019-04-03T04:01:28.311Z,20.90
2019-04-03T04:02:26.337Z,20.50
2019-04-03T04:03:26.249Z,21.10
2019-04-03T04:04:26.355Z,20.40
2019-04-03T04:05:26.231Z,20.90
2019-04-03T04:06:29.076Z,21.40
2019-04-03T04:07:26.222Z,23.40
2019-04-03T04:08:26.366Z,25.20
2019-04-03T04:09:26.185Z,24.20
2019-04-03T04:10:26.609Z,24.20
2019-04-03T04:11:26.214Z,23.50
2019-04-03T04:12:26.438Z,22.60
2019-04-03T04:13:26.137Z,24.80
2019-04-03T04:14:26.177Z,23.20
2019-04-03T04:15:28.863Z,23.80
2019-04-03T04:16:26.181Z,27.00
2019-04-03T04:17:26.089Z,25.80
2019-04-03T04:18:26.086Z,23.30
2019-04-03T04:19:28.533Z,20.90
2019-04-03T04:20:26.060Z,21.70
2019-04-03T04:21:26.046Z,22.30
2019-04-03T04:22:27.358Z,22.60
2019-04-03T04:23:26.025Z,21.90
2019-04-03T04:24:27.611Z,21.40
2019-04-03T04:25:26.011Z,20.60
2019-04-03T04:26:26.098Z,21.80
2019-04-03T04:27:25.982Z,21.40
2019-04-03T04:28:26.290Z,22.50
2019-04-03T04:29:26.184Z,21.80
2019-04-03T04:30:25.950Z,21.60
2019-04-03T04:31:25.935Z,21.60
2019-04-03T04:32:25.924Z,22.20
2019-04-03T04:33:25.914Z,21.60
2019-04-03T04:34:25.901Z,22.10
2019-04-03T04:35:25.891Z,23.20
2019-04-03T04:36:25.897Z,23.10
2019-04-03T04:37:26.407Z,22.10
2019-04-03T04:38:26.824Z,21.40
2019-04-03T04:39:26.603Z,21.50
2019-04-03T04:40:25.834Z,20.60
2019-04-03T04:41:25.830Z,20.60
2019-04-03T04:42:25.814Z,20.70
2019-04-03T04:43:25.811Z,22.30
2019-04-03T04:44:25.944Z,21.50
2019-04-03T04:45:25.776Z,21.20
2019-04-03T04:46:25.770Z,21.40
2019-04-03T04:47:25.755Z,20.80
2019-04-03T04:48:25.785Z,20.50
2019-04-03T04:49:25.734Z,20.50
2019-04-03T04:50:25.825Z,20.90
2019-04-03T04:51:26.399Z,21.20
2019-04-03T04:52:27.510Z,20.80
2019-04-03T04:53:25.716Z,20.00
2019-04-03T04:54:25.680Z,21.70
2019-04-03T04:55:25.932Z,21.90
2019-04-03T04:56:25.661Z,21.20
2019-04-03T04:57:25.647Z,22.60
2019-04-03T04:58:25.968Z,21.70
2019-04-03T04:59:25.892Z,21.50
2019-04-03T05:00:25.614Z,22.00
2019-04-03T05:01:25.600Z,21.60
2019-04-03T05:02:25.711Z,20.90
2019-04-03T05:03:25.587Z,21.10
2019-04-03T05:04:25.710Z,21.60
2019-04-03T05:05:27.225Z,22.00
2019-04-03T05:06:27.002Z,22.00
2019-04-03T05:07:25.536Z,21.60
2019-04-03T05:08:25.533Z,21.50
2019-04-03T05:09:25.530Z,21.50
2019-04-03T05:10:25.502Z,20.50
2019-04-03T05:11:25.503Z,22.20
2019-04-03T05:12:25.478Z,21.20
2019-04-03T05:13:25.696Z,21.00
2019-04-03T05:14:25.463Z,21.20
2019-04-03T05:15:25.446Z,21.20
2019-04-03T05:16:25.709Z,20.50
2019-04-03T05:17:27.232Z,20.40
2019-04-03T05:18:25.622Z,20.50
2019-04-03T05:19:25.415Z,21.80
2019-04-03T05:20:25.527Z,20.00
2019-04-03T05:21:25.405Z,20.60
2019-04-03T05:22:25.370Z,24.60
2019-04-03T05:23:26.109Z,23.90
2019-04-03T05:24:25.356Z,25.60
2019-04-03T05:25:25.332Z,27.50
2019-04-03T05:26:25.336Z,25.40
2019-04-03T05:27:25.363Z,23.70
2019-04-03T05:28:25.313Z,22.10
2019-04-03T05:29:25.291Z,21.50
2019-04-03T05:30:25.279Z,22.00
2019-04-03T05:31:25.366Z,22.20
2019-04-03T05:32:25.267Z,22.90
2019-04-03T05:33:25.251Z,24.20
2019-04-03T05:34:25.278Z,22.20
2019-04-03T05:35:25.229Z,22.60
2019-04-03T05:36:25.241Z,22.00
2019-04-03T05:37:25.224Z,22.10
2019-04-03T05:38:25.491Z,21.90
2019-04-03T05:39:25.721Z,21.40
2019-04-03T05:40:26.212Z,21.50
2019-04-03T05:41:27.440Z,21.20
2019-04-03T05:42:25.151Z,23.10
2019-04-03T05:43:25.196Z,21.70
2019-04-03T05:44:25.286Z,20.70
2019-04-03T05:45:25.125Z,21.20
2019-04-03T05:46:25.109Z,22.20
2019-04-03T05:47:25.168Z,22.60
2019-04-03T05:48:25.150Z,23.10
2019-04-03T05:49:25.077Z,22.40
2019-04-03T05:50:26.450Z,22.40
2019-04-03T05:51:25.065Z,20.60
2019-04-03T05:52:25.052Z,21.30
2019-04-03T05:53:25.043Z,21.10
2019-04-03T05:54:25.015Z,21.20
2019-04-03T05:55:25.009Z,21.70
2019-04-03T05:56:25.004Z,21.50
2019-04-03T05:57:25.176Z,20.70
2019-04-03T05:58:25.281Z,21.20
2019-04-03T05:59:24.983Z,21.40
2019-04-03T06:00:24.954Z,21.10
2019-04-03T06:01:24.943Z,23.60
2019-04-03T06:02:25.105Z,24.20
2019-04-03T06:03:38.795Z,24.10
2019-04-03T06:04:25.914Z,23.80
2019-04-03T06:05:24.906Z,22.20
2019-04-03T06:06:25.095Z,21.60
2019-04-03T06:07:24.865Z,21.20
2019-04-03T06:08:24.884Z,21.80
2019-04-03T06:09:24.854Z,22.10
2019-04-03T06:10:27.292Z,21.50
2019-04-03T06:11:24.823Z,21.10
2019-04-03T06:12:24.829Z,20.80
2019-04-03T06:13:24.807Z,21.10
2019-04-03T06:14:24.816Z,21.40
2019-04-03T06:15:25.024Z,21.00
2019-04-03T06:16:25.026Z,21.10
2019-04-03T06:17:24.762Z,21.30
2019-04-03T06:18:26.535Z,20.10
2019-04-03T06:19:24.762Z,20.20
2019-04-03T06:20:24.723Z,20.00
2019-04-03T06:21:24.710Z,20.50
2019-04-03T06:22:24.811Z,20.50
2019-04-03T06:23:24.686Z,21.10
2019-04-03T06:24:25.024Z,20.60
2019-04-03T06:25:28.972Z,21.10
2019-04-03T06:26:25.657Z,21.90
2019-04-03T06:27:27.428Z,21.00
2019-04-03T06:28:24.654Z,21.40
2019-04-03T06:29:24.631Z,21.90
2019-04-03T06:30:25.766Z,21.50
2019-04-03T06:31:26.485Z,22.50
2019-04-03T06:32:25.093Z,21.50
2019-04-03T06:33:24.574Z,21.70
2019-04-03T06:34:24.719Z,21.40
2019-04-03T06:35:24.557Z,22.00
2019-04-03T06:36:24.541Z,21.80
2019-04-03T06:37:24.554Z,22.40
2019-04-03T06:38:25.181Z,21.30
2019-04-03T06:39:27.445Z,21.50
2019-04-03T06:40:25.561Z,21.40
2019-04-03T06:41:24.725Z,21.00
2019-04-03T06:42:24.520Z,21.40
2019-04-03T06:43:24.467Z,20.80
2019-04-03T06:44:24.469Z,21.10
2019-04-03T06:45:26.100Z,20.90
2019-04-03T06:46:24.505Z,20.90
2019-04-03T06:47:24.420Z,19.80
2019-04-03T06:48:24.411Z,20.10
2019-04-03T06:49:24.544Z,21.20
2019-04-03T06:50:24.389Z,20.20
2019-04-03T06:51:24.661Z,20.40
2019-04-03T06:52:24.370Z,20.40
2019-04-03T06:53:27.733Z,20.50
2019-04-03T06:54:24.512Z,20.70
2019-04-03T06:55:25.368Z,21.30
2019-04-03T06:56:24.318Z,21.50
2019-04-03T06:57:24.309Z,21.10
2019-04-03T06:58:31.681Z,21.00
2019-04-03T06:59:25.283Z,22.00
2019-04-03T07:00:24.562Z,20.20
2019-04-03T07:01:24.281Z,21.80
2019-04-03T07:02:27.084Z,21.30
2019-04-03T07:03:24.242Z,21.90
2019-04-03T07:04:24.230Z,21.60
2019-04-03T07:05:27.244Z,21.30
2019-04-03T07:06:24.280Z,21.10
2019-04-03T07:07:33.298Z,21.50
2019-04-03T07:08:32.140Z,22.40
2019-04-03T07:09:34.120Z,22.20
2019-04-03T07:10:26.118Z,22.30
2019-04-03T07:11:24.255Z,22.60
2019-04-03T07:12:24.195Z,22.90
2019-04-03T07:13:24.139Z,22.50
2019-04-03T07:14:26.165Z,23.30
2019-04-03T07:15:25.190Z,23.20
2019-04-03T07:16:24.113Z,23.50
2019-04-03T07:17:24.092Z,22.60
2019-04-03T07:18:24.198Z,24.30
2019-04-03T07:19:24.175Z,23.60
2019-04-03T07:20:24.059Z,24.40
2019-04-03T07:21:27.096Z,24.00
2019-04-03T07:22:24.113Z,23.80
2019-04-03T07:23:24.050Z,24.40
2019-04-03T07:24:24.274Z,23.50
2019-04-03T07:25:24.001Z,24.10
2019-04-03T07:26:24.155Z,24.00
2019-04-03T07:27:23.991Z,23.70
2019-04-03T07:28:24.164Z,22.40
2019-04-03T07:29:25.532Z,23.60
2019-04-03T07:30:23.956Z,22.40
2019-04-03T07:31:24.511Z,23.60
2019-04-03T07:32:25.834Z,23.50
2019-04-03T07:33:24.106Z,23.70
2019-04-03T07:34:24.175Z,23.50
2019-04-03T07:35:23.958Z,23.70
2019-04-03T07:36:23.881Z,22.80
2019-04-03T07:37:23.869Z,21.40
2019-04-03T07:38:23.858Z,22.70
2019-04-03T07:39:23.863Z,23.00
2019-04-03T07:40:23.861Z,22.50
2019-04-03T07:41:23.828Z,22.30
2019-04-03T07:42:24.559Z,23.00
2019-04-03T07:43:26.132Z,23.40
2019-04-03T07:44:23.810Z,23.70
2019-04-03T07:45:23.783Z,23.30
2019-04-03T07:46:23.774Z,22.90
2019-04-03T07:47:23.762Z,22.60
2019-04-03T07:48:23.963Z,22.90
2019-04-03T07:49:23.749Z,22.50
2019-04-03T07:50:23.753Z,22.40
2019-04-03T07:51:23.834Z,22.70
2019-04-03T07:52:23.758Z,22.60
2019-04-03T07:53:23.695Z,23.20
2019-04-03T07:54:26.153Z,23.30
2019-04-03T07:55:24.518Z,22.90
2019-04-03T07:56:25.619Z,23.50
2019-04-03T07:57:23.925Z,23.00
2019-04-03T07:58:25.659Z,23.30
2019-04-03T07:59:23.655Z,24.40
2019-04-03T08:00:23.907Z,23.70
2019-04-03T08:01:23.623Z,22.60
2019-04-03T08:02:23.645Z,23.40
2019-04-03T08:03:23.592Z,22.80
2019-04-03T08:04:25.248Z,22.00
2019-04-03T08:05:23.572Z,23.40
2019-04-03T08:06:23.690Z,21.80
2019-04-03T08:07:23.590Z,24.00
2019-04-03T08:08:23.535Z,22.80
2019-04-03T08:09:23.590Z,21.50
2019-04-03T08:10:23.513Z,22.40
2019-04-03T08:11:23.509Z,22.10
2019-04-03T08:12:23.492Z,22.10
2019-04-03T08:13:23.482Z,22.20
2019-04-03T08:14:23.487Z,22.70
2019-04-03T08:15:23.730Z,22.70
2019-04-03T08:16:23.445Z,23.20
2019-04-03T08:17:23.497Z,22.80
2019-04-03T08:18:23.425Z,22.70
2019-04-03T08:19:23.612Z,22.10
2019-04-03T08:20:23.769Z,22.30
2019-04-03T08:21:23.394Z,22.70
2019-04-03T08:22:23.551Z,23.60
2019-04-03T08:23:23.386Z,22.30
2019-04-03T08:24:23.589Z,21.70
2019-04-03T08:25:23.350Z,22.80
2019-04-03T08:26:26.208Z,22.30
2019-04-03T08:27:24.352Z,22.50
2019-04-03T08:28:25.548Z,22.70
2019-04-03T08:29:23.311Z,23.30
2019-04-03T08:30:23.383Z,23.20
2019-04-03T08:31:23.470Z,22.70
2019-04-03T08:32:23.498Z,21.40
2019-04-03T08:33:26.617Z,22.40
2019-04-03T08:34:23.312Z,22.00
2019-04-03T08:35:24.230Z,21.60
2019-04-03T08:36:26.090Z,22.90
2019-04-03T08:37:30.557Z,22.00
2019-04-03T08:38:24.245Z,21.70
2019-04-03T08:39:23.206Z,22.70
2019-04-03T08:40:23.196Z,22.40
2019-04-03T08:41:24.282Z,22.10
2019-04-03T08:42:23.183Z,22.90
2019-04-03T08:43:23.272Z,23.10
2019-04-03T08:44:23.139Z,22.50
2019-04-03T08:45:23.140Z,22.90
2019-04-03T08:46:23.119Z,20.90
2019-04-03T08:47:23.174Z,22.60
2019-04-03T08:48:23.096Z,21.60
2019-04-03T08:49:25.786Z,22.00
2019-04-03T08:50:23.115Z,22.30
2019-04-03T08:51:23.073Z,22.10
2019-04-03T08:52:23.215Z,22.10
2019-04-03T08:53:23.038Z,22.10
2019-04-03T08:54:23.030Z,22.00
2019-04-03T08:55:23.034Z,21.40
2019-04-03T08:56:23.005Z,21.10
2019-04-03T08:57:22.994Z,22.00
2019-04-03T08:58:25.416Z,21.50
2019-04-03T08:59:22.971Z,21.30
2019-04-03T09:00:22.995Z,21.50
2019-04-03T09:01:23.281Z,20.50
2019-04-03T09:02:22.984Z,20.00
2019-04-03T09:03:22.941Z,19.80
2019-04-03T09:04:23.200Z,19.20
2019-04-03T09:05:22.922Z,20.10
2019-04-03T09:06:23.451Z,19.70
2019-04-03T09:07:24.642Z,20.40
2019-04-03T09:08:23.023Z,19.80
2019-04-03T09:09:22.958Z,20.30
2019-04-03T09:10:23.573Z,21.30
2019-04-03T09:11:22.912Z,22.10
2019-04-03T09:12:22.840Z,21.40
2019-04-03T09:13:24.117Z,21.10
2019-04-03T09:14:24.989Z,19.60
2019-04-03T09:15:22.876Z,19.90
2019-04-03T09:16:22.822Z,20.80
2019-04-03T09:17:23.599Z,21.60
2019-04-03T09:18:22.771Z,21.50
2019-04-03T09:19:22.763Z,21.70
2019-04-03T09:20:22.857Z,22.10
2019-04-03T09:21:23.285Z,21.20
2019-04-03T09:22:22.980Z,20.30
2019-04-03T09:23:24.615Z,20.50
2019-04-03T09:24:22.790Z,20.50
2019-04-03T09:25:22.707Z,20.30
2019-04-03T09:26:22.704Z,19.40
2019-04-03T09:27:23.026Z,19.80
2019-04-03T09:28:22.875Z,19.80
2019-04-03T09:29:22.944Z,19.60
2019-04-03T09:30:22.825Z,20.10
2019-04-03T09:31:22.891Z,19.10
2019-04-03T09:32:23.481Z,19.30
2019-04-03T09:33:24.964Z,19.10
2019-04-03T09:34:22.863Z,19.40
2019-04-03T09:35:22.581Z,19.30
2019-04-03T09:36:22.599Z,18.40
2019-04-03T09:37:22.563Z,18.80
2019-04-03T09:38:23.156Z,18.50
2019-04-03T09:39:22.559Z,18.60
2019-04-03T09:40:22.556Z,19.40
2019-04-03T09:41:22.615Z,19.30
2019-04-03T09:42:22.507Z,18.30
2019-04-03T09:43:23.144Z,19.20
2019-04-03T09:44:24.529Z,19.10
2019-04-03T09:45:22.818Z,19.20
2019-04-03T09:46:22.517Z,18.60
2019-04-03T09:47:22.460Z,18.50
2019-04-03T09:48:22.461Z,18.70
2019-04-03T09:49:22.699Z,18.20
2019-04-03T09:50:23.023Z,18.80
2019-04-03T09:51:23.021Z,18.10
2019-04-03T09:52:23.562Z,18.70
2019-04-03T09:53:25.520Z,18.00
2019-04-03T09:54:22.383Z,18.90
2019-04-03T09:55:22.368Z,17.60
2019-04-03T09:56:22.481Z,18.40
2019-04-03T09:57:22.346Z,17.70
2019-04-03T09:58:22.341Z,18.00
2019-04-03T09:59:22.325Z,18.20
2019-04-03T10:00:22.315Z,17.60
2019-04-03T10:01:22.313Z,18.50
2019-04-03T10:02:22.321Z,18.20
2019-04-03T10:03:23.457Z,18.40
2019-04-03T10:04:22.390Z,17.40
2019-04-03T10:05:22.324Z,17.30
2019-04-03T10:06:22.265Z,17.10
2019-04-03T10:07:22.263Z,17.60
2019-04-03T10:08:22.238Z,17.30
2019-04-03T10:09:22.255Z,16.90
2019-04-03T10:10:25.155Z,18.50
2019-04-03T10:11:22.243Z,17.40
2019-04-03T10:12:22.720Z,18.00
2019-04-03T10:13:24.836Z,16.90
2019-04-03T10:14:22.193Z,17.80
2019-04-03T10:15:22.165Z,17.60
2019-04-03T10:16:22.232Z,16.90
2019-04-03T10:17:22.139Z,18.90
2019-04-03T10:18:22.572Z,16.90
2019-04-03T10:19:22.418Z,17.40
2019-04-03T10:20:22.751Z,16.70
2019-04-03T10:21:23.517Z,17.40
2019-04-03T10:22:24.143Z,16.70
2019-04-03T10:23:22.265Z,16.00
2019-04-03T10:24:22.697Z,16.40
2019-04-03T10:25:22.063Z,16.90
2019-04-03T10:26:22.054Z,16.90
2019-04-03T10:27:22.591Z,16.70
2019-04-03T10:28:22.024Z,15.40
2019-04-03T10:29:22.064Z,16.50
2019-04-03T10:30:22.486Z,16.80
2019-04-03T10:31:24.263Z,15.90
2019-04-03T10:32:22.002Z,15.70
2019-04-03T10:33:22.198Z,16.00
2019-04-03T10:34:21.964Z,15.30
2019-04-03T10:35:21.989Z,15.80
2019-04-03T10:36:22.064Z,16.00
2019-04-03T10:37:22.233Z,15.50
2019-04-03T10:38:21.990Z,16.40
2019-04-03T10:39:22.230Z,16.00
2019-04-03T10:40:24.104Z,17.20
2019-04-03T10:41:21.899Z,16.90
2019-04-03T10:42:22.590Z,16.80
2019-04-03T10:43:22.235Z,16.90
2019-04-03T10:44:21.887Z,17.50
2019-04-03T10:45:22.856Z,17.10
2019-04-03T10:46:21.831Z,16.00
2019-04-03T10:47:26.566Z,16.40
2019-04-03T10:48:23.634Z,16.70
2019-04-03T10:49:22.088Z,16.70
2019-04-03T10:50:21.795Z,18.10
2019-04-03T10:51:21.963Z,17.00
2019-04-03T10:52:22.019Z,18.30
2019-04-03T10:53:21.903Z,18.90
2019-04-03T10:54:24.400Z,17.60
2019-04-03T10:55:21.732Z,18.90
2019-04-03T10:56:21.726Z,16.70
2019-04-03T10:57:21.809Z,16.20
2019-04-03T10:58:21.709Z,16.30
2019-04-03T10:59:21.747Z,17.20
2019-04-03T11:00:22.094Z,16.10
2019-04-03T11:01:21.727Z,15.60
2019-04-03T11:02:21.688Z,15.80
2019-04-03T11:03:21.755Z,15.40
2019-04-03T11:04:21.798Z,15.80
2019-04-03T11:05:21.629Z,15.00
2019-04-03T11:06:21.620Z,15.20
2019-04-03T11:07:21.632Z,14.90
2019-04-03T11:08:21.602Z,15.00
2019-04-03T11:09:21.590Z,14.80
2019-04-03T11:10:23.368Z,14.30
2019-04-03T11:11:21.563Z,13.80
2019-04-03T11:12:21.554Z,14.70
2019-04-03T11:13:22.453Z,14.60
2019-04-03T11:14:22.027Z,14.90
2019-04-03T11:15:21.530Z,15.30
2019-04-03T11:16:21.984Z,15.40
2019-04-03T11:17:23.771Z,15.10
2019-04-03T11:18:21.885Z,15.60
2019-04-03T11:19:21.486Z,15.00
2019-04-03T11:20:21.778Z,14.50
2019-04-03T11:21:22.146Z,15.60
2019-04-03T11:22:21.704Z,15.30
2019-04-03T11:23:36.065Z,14.90
2019-04-03T11:24:22.441Z,15.50
2019-04-03T11:25:21.662Z,14.90
2019-04-03T11:26:24.315Z,14.70
2019-04-03T11:27:25.100Z,14.00
2019-04-03T11:28:22.679Z,13.80
2019-04-03T11:29:21.534Z,13.40
2019-04-03T11:30:24.194Z,14.60
2019-04-03T11:31:27.445Z,13.70
2019-04-03T11:32:23.193Z,13.30
2019-04-03T11:33:21.377Z,13.70
2019-04-03T11:34:21.691Z,12.30
2019-04-03T11:35:22.408Z,12.70
2019-04-03T11:36:23.298Z,13.20
2019-04-03T11:37:21.316Z,12.70
2019-04-03T11:38:27.155Z,13.00
2019-04-03T11:39:23.127Z,13.20
2019-04-03T11:40:24.234Z,13.50
2019-04-03T11:41:22.955Z,13.20
2019-04-03T11:42:24.492Z,13.20
2019-04-03T11:43:23.034Z,11.70
2019-04-03T11:44:21.216Z,11.90
2019-04-03T11:45:21.403Z,10.40
2019-04-03T11:46:21.193Z,11.80
2019-04-03T11:47:22.423Z,11.50
2019-04-03T11:48:21.270Z,10.70
2019-04-03T11:49:21.407Z,11.20
2019-04-03T11:50:23.464Z,10.80
2019-04-03T11:51:21.159Z,12.00
2019-04-03T11:52:21.129Z,11.40
2019-04-03T11:53:21.137Z,11.20
2019-04-03T11:54:21.722Z,11.70
2019-04-03T11:55:21.141Z,11.50
2019-04-03T11:56:21.764Z,11.50
2019-04-03T11:57:21.076Z,12.00
2019-04-03T11:58:22.102Z,12.10
2019-04-03T11:59:22.773Z,12.60
2019-04-03T12:00:21.233Z,11.90
2019-04-03T12:01:21.090Z,12.90
2019-04-03T12:02:21.034Z,13.40
2019-04-03T12:03:21.402Z,13.20
2019-04-03T12:04:21.276Z,13.00
2019-04-03T12:05:21.584Z,13.20
2019-04-03T12:06:21.228Z,12.90
2019-04-03T12:07:20.969Z,13.40
2019-04-03T12:08:20.964Z,13.50
2019-04-03T12:09:21.178Z,15.00
2019-04-03T12:10:20.932Z,14.90
2019-04-03T12:11:21.635Z,14.30
2019-04-03T12:12:20.916Z,13.50
2019-04-03T12:13:21.964Z,13.90
2019-04-03T12:14:20.911Z,14.10
2019-04-03T12:15:21.949Z,13.40
2019-04-03T12:16:23.892Z,13.90
2019-04-03T12:17:21.190Z,13.60
2019-04-03T12:18:20.855Z,13.90
2019-04-03T12:19:20.838Z,14.00
2019-04-03T12:20:20.826Z,13.10
2019-04-03T12:21:21.258Z,14.30
2019-04-03T12:22:21.977Z,13.60
2019-04-03T12:23:20.806Z,13.30
2019-04-03T12:24:20.785Z,12.70
2019-04-03T12:25:20.777Z,13.10
2019-04-03T12:26:21.316Z,13.80
2019-04-03T12:27:20.891Z,12.10
2019-04-03T12:28:20.798Z,13.30
2019-04-03T12:29:21.923Z,13.80
2019-04-03T12:30:20.717Z,13.80
2019-04-03T12:31:20.800Z,13.20
2019-04-03T12:32:21.607Z,12.70
2019-04-03T12:33:21.692Z,12.80
2019-04-03T12:34:22.986Z,12.10
2019-04-03T12:35:20.700Z,12.20
2019-04-03T12:36:21.408Z,11.70
2019-04-03T12:37:20.923Z,11.30
2019-04-03T12:38:22.454Z,12.30
2019-04-03T12:39:20.906Z,12.60
2019-04-03T12:40:20.620Z,11.60
2019-04-03T12:41:21.147Z,10.60
2019-04-03T12:42:20.965Z,10.80
2019-04-03T12:43:21.850Z,10.80
2019-04-03T12:44:21.945Z,10.90
2019-04-03T12:45:20.879Z,11.10
2019-04-03T12:46:20.655Z,9.90
2019-04-03T12:47:20.535Z,10.50
2019-04-03T12:48:20.531Z,10.30
2019-04-03T12:49:22.857Z,10.10
2019-04-03T12:50:21.067Z,9.90
2019-04-03T12:51:20.942Z,9.50
2019-04-03T12:52:20.483Z,8.50